LOP471 / ZF264 7700 Squawk Report (22nd of February, 2018)

Aircraft TUCA Reg No. ZF264 Age 28 years old
Model Emb-312 Turboprop engine 1 First flight 18-06-90
Registered N/A Rollout N/A Delivered 05-07-90
Construction No. T48 Line No. N/A Series T.1
ADSHEX 43C680 Airline name Royal Air Force Owner N/A
Airfield based Linton-on-Ouse~Yorks~G First tracked N/A

Flight history for ZF264

Route Flight No Date Playback
???? N/A 2018-09-21 10:22:00
???? N/A 2018-09-20 08:36:00
???? N/A 2018-09-19 08:45:00
???? N/A 2018-09-17 12:58:00
???? N/A 2018-09-13 13:38:00
???? N/A 2018-09-12 15:53:00
???? N/A 2018-09-12 14:33:00
???? N/A 2018-09-11 15:42:00
???? N/A 2018-09-10 15:19:00
???? N/A 2018-09-06 11:10:00
???? N/A 2018-09-05 16:14:00
???? N/A 2018-09-05 12:53:00
???? N/A 2018-09-04 13:59:00
???? N/A 2018-09-04 12:38:00
???? N/A 2018-09-03 15:32:00
???? N/A 2018-08-31 11:15:00
???? N/A 2018-08-30 16:37:00
???? N/A 2018-08-28 13:10:00
???? N/A 2018-08-10 11:15:00
???? N/A 2018-08-08 15:25:00
Time Lat Lon Altitude Heading Speed Vertical Rate
2018-02-22 13:40:22 GMT 54.095703 -1.199206 700 83 147 -128
2018-02-22 13:40:22 GMT 54.095703 -1.199206 2,875 83 147 -128
2018-02-22 13:40:13 GMT 54.092724 -1.186362 3,600 83 147 -128
2018-02-22 13:39:31 GMT 54.077686 -1.103480 6,850 83 147 -128
2018-02-22 13:39:14 GMT 54.082481 -1.102833 7,375 83 147 -128
2018-02-22 13:39:06 GMT 54.086113 -1.099683 7,850 83 147 -128
2018-02-22 13:39:00 GMT 54.093792 -1.088293 8,300 83 147 -128
2018-02-22 13:38:50 GMT 54.092583 -1.068340 8,650 83 147 -128
2018-02-22 13:38:32 GMT 54.102684 -1.063170 9,025 83 147 -128
2018-02-22 13:38:26 GMT 54.109715 -1.063897 9,100 83 147 -128
2018-02-22 13:38:18 GMT 54.112602 -1.064704 9,425 83 147 -128
2018-02-22 13:38:09 GMT 54.121212 -1.070602 9,875 83 147 -128
2018-02-22 13:37:59 GMT 54.126614 -1.084900 10,125 83 147 -128
2018-02-22 13:37:43 GMT 54.138298 -1.101460 10,400 83 147 -128
2018-02-22 13:37:34 GMT 54.147514 -1.102833 10,850 83 147 -128
2018-02-22 13:37:28 GMT 54.152405 -1.101783 11,600 83 147 -128
2018-02-22 13:37:17 GMT 54.170883 -1.089181 12,325 83 147 -128
2018-02-22 13:36:07 GMT 54.224697 -1.010419 12,950 83 147 -128
2018-02-22 13:36:00 GMT 54.230610 -1.002422 12,975 83 147 -128
2018-02-22 13:35:53 GMT 54.237686 -0.993213 12,975 83 147 -128
2018-02-22 13:35:43 GMT 54.245415 -0.982711 13,075 83 147 -128
2018-02-22 13:35:34 GMT 54.257286 -0.968897 13,050 83 147 -128
2018-02-22 13:35:24 GMT 54.266502 -0.958880 13,050 83 147 -128
2018-02-22 13:35:13 GMT 54.271809 -0.953306 12,975 83 147 -128
2018-02-22 13:35:00 GMT 54.285915 -0.931175 12,900 83 147 -128
2018-02-22 13:34:35 GMT 54.300392 -0.862260 13,075 83 147 -128
2018-02-22 13:34:29 GMT 54.300018 -0.846197 13,250 83 147 -128
2018-02-22 13:34:17 GMT 54.302395 -0.831798 13,325 83 147 -128
2018-02-22 13:34:09 GMT 54.306305 -0.821062 13,250 83 147 -128
2018-02-22 13:33:59 GMT 54.305981 -0.812822 13,150 83 147 -128
2018-02-22 13:33:43 GMT 54.302486 -0.810575 13,075 83 147 -128
2018-02-22 13:33:37 GMT 54.299603 -0.820312 12,950 83 147 -128
2018-02-22 13:33:29 GMT 54.295921 -0.825806 12,875 92 146 896
2018-02-22 13:33:16 GMT 54.296204 -0.841286 12,925 92 146 896
2018-02-22 13:33:10 GMT 54.296806 -0.853271 13,175 92 146 896
2018-02-22 13:32:58 GMT 54.297504 -0.867421 12,950 80 117 2048
2018-02-22 13:32:42 GMT 54.299881 -0.889060 12,950 80 117 2048
2018-02-22 13:32:37 GMT 54.300392 -0.894803 12,950 80 117 2048
2018-02-22 13:32:28 GMT 54.300812 -0.908703 12,625 99 144 0
2018-02-22 13:31:47 GMT 54.290615 -0.942161 11,325 99 144 0
2018-02-22 13:31:04 GMT 54.296902 -0.928927 12,200 99 144 0
2018-02-22 13:29:57 GMT 54.278629 -0.951786 12,975 99 151 0
2018-02-22 13:29:44 GMT 54.280258 -0.966661 12,950 99 157 -60
2018-02-22 13:29:13 GMT 54.283829 -1.003738 12,900 97 162 0
2018-02-22 13:28:59 GMT 54.285263 -1.021569 12,950 97 164 0
2018-02-22 13:28:47 GMT 54.286266 -1.035947 12,925 96 178 -60
2018-02-22 13:28:35 GMT 54.287350 -1.051177 12,900 94 114 60
2018-02-22 13:28:25 GMT 54.287777 -1.060262 12,900 99 206 840
2018-02-22 13:28:14 GMT 54.289429 -1.078060 12,900 98 153
2018-02-22 13:28:03 GMT 54.292992 -1.104459 12,675
2018-02-22 13:27:56 GMT 54.294621 -1.116361 12,400
2018-02-22 13:27:40 GMT 54.298111 -1.136586 11,850
2018-02-22 13:27:36 GMT 54.297600 -1.142412 11,675
2018-02-22 13:27:24 GMT 54.296482 -1.158225 11,275
2018-02-22 13:27:12 GMT 54.299694 -1.174622 10,950
2018-02-22 13:27:03 GMT 54.296993 -1.185275 10,675

Making use of Plane Finder data

You are free to use the raw flight data, aircraft information and images provided in this report for your own purposes provided the data is correctly attributed to Plane Finder. We ask that you please credit Plane Finder and link to planefinder.net in close proximity to the content.

Optionally one of the following logos (no smaller then 150x24px) can be used and must link to planefinder.net

Embedding the Plane Finder map

You are welcome to embed the Plane Finder playback map on your website to offer visitors a more interactive experience. We suggest using the following HTML code:

<iframe src="//planefinder.net/data/report/LOP471-ZF264-7700-squawk-2018-02-22/map" width="800" height="600" seamless="seamless"></iframe>

Where our data comes from

Plane Finder has a global network of data feeds and antenna radars that receive data broadcast directly from aircraft. The primary technologies used are ADS-B and MLAT. We also show feeds from the FAA and a FLARM glider feed.

Click here to find out more about the Plane Finder network.

How we collect our data